createdAt,value
2024-03-12T00:04:50.766Z,0.01
2024-03-12T00:09:50.676Z,0
2024-03-12T00:19:50.862Z,0
2024-03-12T00:24:50.796Z,0.02
2024-03-12T00:29:48.448Z,0.01
2024-03-12T00:34:48.046Z,0.02
2024-03-12T00:39:47.950Z,0.03
2024-03-12T00:44:48.375Z,0
2024-03-12T00:49:47.887Z,0.03
2024-03-12T00:54:48.015Z,0.03
2024-03-12T00:59:48.354Z,0
2024-03-12T01:04:49.053Z,0
2024-03-12T01:09:49.747Z,0.01
2024-03-12T01:14:45.892Z,0.02
2024-03-12T01:19:45.746Z,0.03
2024-03-12T01:24:45.428Z,0.02
2024-03-12T01:29:45.917Z,0.03
2024-03-12T01:34:45.788Z,0.02
2024-03-12T01:39:45.966Z,0.03
2024-03-12T01:44:45.439Z,0
2024-03-12T01:49:45.695Z,0
2024-03-12T01:54:43.971Z,0
2024-03-12T01:59:44.513Z,0.02
2024-03-12T02:01:47.968Z,0.03
2024-03-12T02:06:07.365Z,0
2024-03-12T02:11:07.412Z,0.03
2024-03-12T02:16:08.245Z,0
2024-03-12T02:21:07.138Z,0.03
2024-03-12T02:26:07.059Z,0.03
2024-03-12T02:36:06.545Z,0
2024-03-12T02:41:06.013Z,0.03
2024-03-12T02:46:05.987Z,0.03
2024-03-12T02:51:05.410Z,0
2024-03-12T02:56:05.542Z,0
2024-03-12T03:00:27.970Z,0.03
2024-03-12T03:05:28.233Z,0.03
2024-03-12T03:10:29.670Z,0.03
2024-03-12T03:15:25.421Z,0.03
2024-03-12T03:20:25.146Z,0
2024-03-12T03:25:24.993Z,0.03
2024-03-12T03:30:25.305Z,0
2024-03-12T03:35:25.545Z,0.01
2024-03-12T03:40:26.762Z,0.03
2024-03-12T03:45:25.872Z,0.03
2024-03-12T03:50:25.987Z,0.03
2024-03-12T03:55:23.858Z,0.02
2024-03-12T04:00:06.971Z,0.01
2024-03-12T04:05:06.869Z,0.03
2024-03-12T04:10:07.277Z,0
2024-03-12T04:15:07.000Z,0.03
2024-03-12T04:20:07.539Z,0
2024-03-12T04:25:06.521Z,0
2024-03-12T04:30:06.353Z,0
2024-03-12T04:35:07.466Z,0
2024-03-12T04:40:03.932Z,0.02
2024-03-12T04:45:03.081Z,0
2024-03-12T04:50:03.566Z,0
2024-03-12T04:55:03.693Z,0.02
2024-03-12T05:04:58.120Z,0
2024-03-12T05:09:47.907Z,0.03
2024-03-12T05:14:49.861Z,0.03
2024-03-12T05:19:46.121Z,0
2024-03-12T05:24:45.595Z,0.04
2024-03-12T05:29:45.574Z,0.04
2024-03-12T05:34:44.969Z,0.07
2024-03-12T05:39:44.730Z,0.07
2024-03-12T05:44:45.176Z,0.12
2024-03-12T05:49:44.752Z,0.05
2024-03-12T05:54:44.523Z,0.08
2024-03-12T05:59:43.024Z,0.19
2024-03-12T06:04:53.357Z,0.28
2024-03-12T06:09:52.928Z,0.36
2024-03-12T06:14:53.248Z,0.51
2024-03-12T06:19:53.379Z,0.57
2024-03-12T06:24:44.236Z,0.62
2024-03-12T06:29:53.792Z,0.65
2024-03-12T06:34:52.322Z,0.7
2024-03-12T06:39:52.494Z,0.86
2024-03-12T06:44:52.377Z,0.73
2024-03-12T06:49:52.892Z,1.02
2024-03-12T06:54:53.306Z,1.44
2024-03-12T06:59:43.606Z,1.83
2024-03-12T07:01:46.117Z,1.86
2024-03-12T07:06:05.120Z,2.24
2024-03-12T07:11:05.314Z,2.78
2024-03-12T07:16:04.767Z,1.27
2024-03-12T07:21:05.052Z,1.09
2024-03-12T07:26:05.370Z,1.17
2024-03-12T07:31:05.224Z,1.45
2024-03-12T07:36:04.692Z,1.66
2024-03-12T07:41:05.205Z,1.67
2024-03-12T07:46:03.393Z,1.87
2024-03-12T07:51:03.197Z,2.14
2024-03-12T07:56:02.704Z,1.96
2024-03-12T08:00:23.811Z,1.77
2024-03-12T08:05:23.462Z,3.57
2024-03-12T08:10:23.532Z,3.7
2024-03-12T08:15:23.734Z,4.08
2024-03-12T08:20:23.655Z,3.33
2024-03-12T08:25:23.683Z,4.66
2024-03-12T08:30:21.062Z,3.56
2024-03-12T08:35:20.825Z,8.85
2024-03-12T08:40:21.067Z,8.64
2024-03-12T08:45:22.463Z,11.51
2024-03-12T08:50:20.504Z,12.87
2024-03-12T08:55:20.900Z,13.17
2024-03-12T09:00:07.727Z,13.32
2024-03-12T09:05:08.125Z,12.43
2024-03-12T09:10:05.208Z,13.11
2024-03-12T09:15:04.784Z,13.58
2024-03-12T09:20:04.816Z,12.35
2024-03-12T09:25:05.022Z,11.21
2024-03-12T09:30:04.691Z,10.4
2024-03-12T09:35:04.880Z,9.32
2024-03-12T09:40:05.021Z,8.36
2024-03-12T09:45:08.604Z,6.9
2024-03-12T09:50:07.184Z,7.08
2024-03-12T09:55:01.975Z,5.61
2024-03-12T09:59:46.846Z,6.88
2024-03-12T10:04:45.925Z,5.4
2024-03-12T10:09:45.101Z,3.91
2024-03-12T10:14:45.357Z,4.03
2024-03-12T10:19:45.792Z,4.92
2024-03-12T10:24:45.271Z,5.99
2024-03-12T10:29:46.664Z,6.06
2024-03-12T10:34:43.192Z,5.35
2024-03-12T10:39:53.225Z,3.95
2024-03-12T10:44:54.993Z,3.84
2024-03-12T10:49:43.416Z,3.92
2024-03-12T10:55:02.228Z,3.15
2024-03-12T10:59:43.690Z,5.16
2024-03-12T11:04:43.931Z,6.05
2024-03-12T11:09:52.572Z,5.43
2024-03-12T11:14:53.978Z,5.15
2024-03-12T11:19:53.397Z,5.67
2024-03-12T11:24:52.817Z,4.59
2024-03-12T11:29:52.908Z,3.81
2024-03-12T11:34:54.366Z,4.29
2024-03-12T11:39:54.433Z,5.67
2024-03-12T11:44:50.562Z,6.77
2024-03-12T11:49:51.177Z,6.56
2024-03-12T11:54:51.430Z,5.28
2024-03-12T12:00:00.656Z,5.04
2024-03-12T12:04:52.723Z,6.47
2024-03-12T12:10:00.993Z,7.34
2024-03-12T12:14:51.134Z,7.16
2024-03-12T12:19:58.810Z,8.29
2024-03-12T12:24:50.730Z,10.27
2024-03-12T12:29:50.988Z,6.36
2024-03-12T12:34:50.960Z,5.58
2024-03-12T12:40:11.389Z,7.51
2024-03-12T12:44:50.057Z,9.63
2024-03-12T12:49:50.057Z,5.21
2024-03-12T12:54:50.226Z,6.33
2024-03-12T12:59:50.794Z,10.04
2024-03-12T13:04:51.395Z,10.41
2024-03-12T13:09:52.207Z,8.54
2024-03-12T13:14:50.238Z,8.67
2024-03-12T13:19:50.733Z,9.1
2024-03-12T13:24:50.608Z,10.69
2024-03-12T13:29:51.754Z,10.86
2024-03-12T13:34:51.762Z,10.52
2024-03-12T13:39:52.409Z,11.71
2024-03-12T13:44:50.767Z,9.97
2024-03-12T13:49:50.955Z,7.03
2024-03-12T13:54:50.627Z,4.82
2024-03-12T13:59:53.213Z,3.92
2024-03-12T14:04:51.263Z,4.36
2024-03-12T14:09:51.327Z,3.66
2024-03-12T14:14:52.668Z,3.19
2024-03-12T14:19:48.357Z,3.49
2024-03-12T14:24:48.778Z,4.37
2024-03-12T14:29:48.938Z,4.47
2024-03-12T14:34:49.716Z,4.71
2024-03-12T14:39:52.904Z,6.18
2024-03-12T14:44:49.890Z,4.71
2024-03-12T14:49:53.643Z,3.34
2024-03-12T14:54:50.038Z,2.73
2024-03-12T14:59:48.283Z,3.17
2024-03-12T15:01:53.231Z,3.42
2024-03-12T15:06:11.888Z,4.28
2024-03-12T15:11:11.665Z,3.3
2024-03-12T15:16:11.159Z,2.64
2024-03-12T15:21:09.642Z,2.17
2024-03-12T15:26:10.433Z,2.09
2024-03-12T15:31:09.598Z,2.3
2024-03-12T15:36:09.540Z,2.28
2024-03-12T15:41:09.164Z,1.57
2024-03-12T15:46:08.745Z,1.36
2024-03-12T15:51:09.004Z,1.55
2024-03-12T15:56:09.052Z,1.97
2024-03-12T16:00:31.949Z,2.46
2024-03-12T16:05:29.672Z,1.96
2024-03-12T16:10:29.781Z,2.09
2024-03-12T16:15:29.080Z,2.04
2024-03-12T16:20:31.332Z,1.42
2024-03-12T16:25:32.995Z,0.97
2024-03-12T16:30:29.644Z,0.92
2024-03-12T16:35:30.045Z,0.85
2024-03-12T16:40:30.780Z,0.62
2024-03-12T16:45:27.946Z,0.52
2024-03-12T16:50:27.825Z,0.4
2024-03-12T16:55:27.242Z,0.33
2024-03-12T17:00:10.585Z,0.23
2024-03-12T17:05:10.214Z,0.24
2024-03-12T17:10:11.612Z,0.2
2024-03-12T17:20:10.803Z,0.06
2024-03-12T17:25:12.202Z,0.04
2024-03-12T17:30:09.807Z,0.01
2024-03-12T17:35:08.409Z,0.02
2024-03-12T17:40:07.875Z,0.04
2024-03-12T17:45:08.220Z,0
2024-03-12T17:50:07.953Z,0.03
2024-03-12T17:55:07.953Z,0.03
2024-03-12T17:59:51.278Z,0
2024-03-12T18:04:50.960Z,0.02
2024-03-12T18:09:49.301Z,0.01
2024-03-12T18:14:48.583Z,0.03
2024-03-12T18:19:49.226Z,0.03
2024-03-12T18:24:48.233Z,0.01
2024-03-12T18:29:48.007Z,0.03
2024-03-12T18:34:48.640Z,0.02
2024-03-12T18:39:47.951Z,0.03
2024-03-12T18:44:48.223Z,0.03
2024-03-12T18:49:46.947Z,0.03
2024-03-12T18:54:46.001Z,0.01
2024-03-12T18:59:45.906Z,0.03
2024-03-12T19:04:46.343Z,0.02
2024-03-12T19:09:45.554Z,0.02
2024-03-12T19:14:45.478Z,0
2024-03-12T19:19:46.086Z,0.03
2024-03-12T19:24:47.890Z,0
2024-03-12T19:29:45.896Z,0.02
2024-03-12T19:34:43.281Z,0.01
2024-03-12T19:39:53.152Z,0
2024-03-12T19:44:52.966Z,0.03
2024-03-12T19:49:53.545Z,0
2024-03-12T19:54:53.449Z,0
2024-03-12T19:59:53.768Z,0.02
2024-03-12T20:04:52.304Z,0.01
2024-03-12T20:09:52.194Z,0
2024-03-12T20:14:52.048Z,0.03
2024-03-12T20:19:52.600Z,0
2024-03-12T20:24:52.343Z,0
2024-03-12T20:29:53.003Z,0.03
2024-03-12T20:34:53.982Z,0.03
2024-03-12T20:39:49.923Z,0.01
2024-03-12T20:44:50.640Z,0.02
2024-03-12T20:49:50.972Z,0.03
2024-03-12T20:54:51.430Z,0
2024-03-12T20:59:51.770Z,0.02
2024-03-12T21:04:52.703Z,0.01
2024-03-12T21:09:52.516Z,0.01
2024-03-12T21:14:50.776Z,0.03
2024-03-12T21:19:50.933Z,0.03
2024-03-12T21:24:51.247Z,0
2024-03-12T21:29:51.507Z,0
2024-03-12T21:34:52.295Z,0.03
2024-03-12T21:39:49.962Z,0.03
2024-03-12T21:44:50.049Z,0
2024-03-12T21:49:50.148Z,0.03
2024-03-12T21:54:50.618Z,0.01
2024-03-12T21:59:50.726Z,0.01
2024-03-12T22:04:51.811Z,0
2024-03-12T22:09:44.135Z,0
2024-03-12T22:14:49.388Z,0
2024-03-12T22:19:49.053Z,0.03
2024-03-12T22:24:48.934Z,0.03
2024-03-12T22:29:49.712Z,0.02
2024-03-12T22:34:49.460Z,0
2024-03-12T22:39:49.286Z,0.02
2024-03-12T22:44:48.872Z,0.03
2024-03-12T22:49:35.824Z,0.02
2024-03-12T22:54:35.695Z,0.03
2024-03-12T22:59:35.230Z,0.03
2024-03-12T23:04:35.155Z,0.03
2024-03-12T23:09:35.235Z,0
2024-03-12T23:14:35.439Z,0.03
2024-03-12T23:19:33.081Z,0.02
2024-03-12T23:24:33.332Z,0
2024-03-12T23:29:32.997Z,0.03
2024-03-12T23:34:33.038Z,0.03
2024-03-12T23:39:32.422Z,0
2024-03-12T23:44:32.563Z,0
2024-03-12T23:49:32.811Z,0
2024-03-12T23:54:32.319Z,0
2024-03-12T23:59:32.460Z,0
